createdAt,value
2024-01-28T00:01:23.123Z,19.30
2024-01-28T00:04:03.671Z,18.00
2024-01-28T00:06:31.569Z,20.80
2024-01-28T00:08:59.781Z,15.90
2024-01-28T00:11:27.959Z,21.10
2024-01-28T00:13:55.979Z,20.50
2024-01-28T00:16:23.967Z,18.10
2024-01-28T00:18:59.354Z,22.80
2024-01-28T00:21:28.203Z,23.20
2024-01-28T00:23:57.172Z,22.50
2024-01-28T00:26:25.670Z,24.10
2024-01-28T00:28:53.573Z,19.50
2024-01-28T00:31:21.454Z,28.90
2024-01-28T00:33:49.508Z,21.40
2024-01-28T00:36:17.533Z,20.10
2024-01-28T00:38:45.498Z,21.90
2024-01-28T00:41:31.034Z,22.70
2024-01-28T00:43:59.664Z,26.90
2024-01-28T00:46:27.977Z,21.00
2024-01-28T00:48:56.160Z,25.00
2024-01-28T00:51:24.355Z,24.10
2024-01-28T00:53:52.349Z,26.10
2024-01-28T00:56:20.769Z,25.10
2024-01-28T00:58:48.641Z,25.20
2024-01-28T01:01:16.993Z,24.40
2024-01-28T01:03:44.968Z,34.00
2024-01-28T01:06:12.950Z,23.00
2024-01-28T01:08:40.872Z,26.00
2024-01-28T01:11:09.107Z,26.50
2024-01-28T01:13:36.970Z,18.70
2024-01-28T01:16:05.241Z,24.50
2024-01-28T01:18:33.593Z,24.10
2024-01-28T01:21:01.558Z,19.50
2024-01-28T01:23:30.747Z,25.70
2024-01-28T01:28:32.907Z,26.20
2024-01-28T01:31:05.217Z,23.40
2024-01-28T01:33:33.298Z,23.30
2024-01-28T01:36:01.725Z,22.70
2024-01-28T01:38:30.228Z,26.40
2024-01-28T01:40:59.715Z,18.90
2024-01-28T01:43:27.725Z,23.50
2024-01-28T01:45:55.634Z,20.00
2024-01-28T01:48:23.996Z,23.60
2024-01-28T01:50:52.232Z,21.80
2024-01-28T01:53:20.193Z,17.10
2024-01-28T01:55:48.145Z,17.80
2024-01-28T01:58:16.199Z,21.10
2024-01-28T02:00:44.619Z,19.90
2024-01-28T02:03:13.320Z,17.60
2024-01-28T02:05:41.838Z,23.60
2024-01-28T02:08:09.831Z,22.80
2024-01-28T02:10:37.769Z,16.60
2024-01-28T02:13:05.896Z,17.00
2024-01-28T02:15:40.471Z,13.90
2024-01-28T02:18:08.774Z,20.40
2024-01-28T02:20:37.010Z,14.40
2024-01-28T02:23:06.104Z,15.80
2024-01-28T02:25:34.303Z,12.90
2024-01-28T02:28:02.255Z,16.60
2024-01-28T02:30:30.262Z,19.10
2024-01-28T02:32:58.430Z,12.60
2024-01-28T02:35:26.672Z,13.70
2024-01-28T02:37:54.595Z,14.90
2024-01-28T02:40:22.565Z,18.10
2024-01-28T02:42:50.793Z,18.60
2024-01-28T02:45:19.481Z,13.70
2024-01-28T02:47:47.383Z,18.00
2024-01-28T02:50:15.317Z,13.10
2024-01-28T02:52:43.163Z,15.10
2024-01-28T02:55:11.123Z,18.60
2024-01-28T02:57:39.013Z,14.70
2024-01-28T03:00:07.728Z,16.40
2024-01-28T03:02:38.188Z,16.10
2024-01-28T03:05:06.906Z,17.80
2024-01-28T03:07:34.893Z,16.30
2024-01-28T03:10:02.907Z,18.40
2024-01-28T03:12:30.846Z,14.00
2024-01-28T03:14:58.992Z,20.90
2024-01-28T03:17:26.941Z,17.40
2024-01-28T03:19:55.085Z,16.20
2024-01-28T03:22:23.498Z,18.00
2024-01-28T03:24:52.861Z,16.00
2024-01-28T03:27:20.882Z,18.80
2024-01-28T03:29:48.731Z,15.70
2024-01-28T03:32:17.098Z,13.00
2024-01-28T03:34:45.241Z,14.70
2024-01-28T03:37:13.607Z,15.40
2024-01-28T03:39:41.668Z,19.50
2024-01-28T03:42:11.234Z,20.60
2024-01-28T03:44:39.129Z,16.20
2024-01-28T03:47:06.993Z,18.30
2024-01-28T03:49:35.226Z,16.70
2024-01-28T03:52:03.270Z,14.10
2024-01-28T03:54:31.278Z,19.30
2024-01-28T03:56:59.167Z,17.50
2024-01-28T03:59:28.498Z,18.10
2024-01-28T04:04:24.649Z,9.90
2024-01-28T04:06:53.280Z,18.30
2024-01-28T04:09:21.254Z,17.10
2024-01-28T04:11:49.086Z,15.60
2024-01-28T04:14:16.962Z,13.70
2024-01-28T04:16:44.728Z,16.80
2024-01-28T04:19:13.066Z,16.40
2024-01-28T04:21:42.220Z,16.60
2024-01-28T04:26:38.606Z,16.10
2024-01-28T04:29:06.358Z,17.40
2024-01-28T04:31:34.219Z,14.50
2024-01-28T04:34:02.213Z,12.50
2024-01-28T04:36:30.226Z,11.00
2024-01-28T04:38:58.218Z,14.00
2024-01-28T04:41:26.203Z,14.20
2024-01-28T04:43:54.085Z,12.10
2024-01-28T04:46:22.031Z,13.90
2024-01-28T04:48:50.182Z,14.40
2024-01-28T04:51:18.169Z,11.10
2024-01-28T04:53:46.005Z,9.30
2024-01-28T04:56:14.014Z,15.60
2024-01-28T04:58:41.980Z,12.00
2024-01-28T05:01:10.232Z,12.60
2024-01-28T05:03:38.411Z,11.00
2024-01-28T05:06:06.651Z,15.30
2024-01-28T05:08:34.697Z,14.60
2024-01-28T05:11:02.608Z,14.20
2024-01-28T05:13:30.703Z,13.50
2024-01-28T05:15:58.651Z,11.20
2024-01-28T05:18:27.571Z,8.80
2024-01-28T05:20:55.811Z,11.70
2024-01-28T05:23:23.703Z,10.80
2024-01-28T05:25:51.538Z,14.00
2024-01-28T05:28:19.474Z,13.90
2024-01-28T05:30:48.124Z,11.70
2024-01-28T05:33:16.292Z,10.50
2024-01-28T05:35:44.349Z,14.30
2024-01-28T05:38:12.318Z,13.00
2024-01-28T05:40:40.293Z,10.70
2024-01-28T05:43:08.569Z,11.20
2024-01-28T05:45:36.488Z,10.30
2024-01-28T05:48:04.880Z,13.30
2024-01-28T05:50:33.096Z,13.10
2024-01-28T05:53:00.936Z,9.40
2024-01-28T05:55:28.834Z,10.10
2024-01-28T05:57:56.870Z,9.10
2024-01-28T06:00:24.942Z,12.20
2024-01-28T06:02:52.793Z,13.50
2024-01-28T06:05:20.682Z,13.60
2024-01-28T06:07:48.586Z,16.80
2024-01-28T06:10:16.940Z,13.00
2024-01-28T06:12:44.922Z,9.70
2024-01-28T06:15:13.034Z,9.90
2024-01-28T06:17:41.707Z,12.10
2024-01-28T06:20:09.986Z,10.10
2024-01-28T06:22:38.045Z,10.50
2024-01-28T06:25:08.069Z,10.30
2024-01-28T06:27:36.061Z,9.70
2024-01-28T06:30:04.423Z,8.70
2024-01-28T06:32:33.445Z,8.90
2024-01-28T06:35:01.554Z,15.60
2024-01-28T06:37:30.017Z,13.20
2024-01-28T06:39:57.940Z,15.40
2024-01-28T06:42:26.627Z,12.40
2024-01-28T06:44:54.613Z,8.60
2024-01-28T06:47:22.623Z,11.40
2024-01-28T06:49:51.517Z,13.40
2024-01-28T06:54:47.724Z,15.20
2024-01-28T06:57:15.828Z,11.00
2024-01-28T06:59:45.114Z,8.20
2024-01-28T07:02:13.411Z,13.80
2024-01-28T07:04:41.295Z,8.50
2024-01-28T07:07:09.613Z,10.10
2024-01-28T07:09:37.798Z,8.30
2024-01-28T07:12:08.259Z,9.80
2024-01-28T07:14:36.282Z,8.50
2024-01-28T07:17:04.562Z,11.70
2024-01-28T07:19:32.431Z,8.50
2024-01-28T07:22:00.493Z,8.60
2024-01-28T07:24:28.654Z,11.00
2024-01-28T07:26:56.604Z,11.90
2024-01-28T07:29:24.429Z,11.90
2024-01-28T07:31:54.075Z,9.30
2024-01-28T07:34:24.444Z,10.00
2024-01-28T07:36:55.355Z,8.40
2024-01-28T07:39:23.674Z,9.30
2024-01-28T07:41:51.496Z,8.80
2024-01-28T07:44:19.389Z,9.40
2024-01-28T07:46:48.288Z,6.90
2024-01-28T07:49:17.973Z,7.80
2024-01-28T07:51:46.055Z,7.70
2024-01-28T07:54:14.027Z,10.20
2024-01-28T07:56:41.895Z,9.80
2024-01-28T07:59:09.946Z,10.70
2024-01-28T08:01:38.194Z,9.00
2024-01-28T08:04:06.323Z,9.50
2024-01-28T08:06:34.466Z,10.00
2024-01-28T08:09:02.438Z,7.70
2024-01-28T08:11:30.369Z,8.50
2024-01-28T08:13:58.386Z,11.20
2024-01-28T08:16:26.384Z,8.30
2024-01-28T08:18:55.343Z,10.40
2024-01-28T08:21:24.121Z,8.20
2024-01-28T08:23:52.451Z,6.90
2024-01-28T08:26:20.334Z,5.00
2024-01-28T08:28:48.298Z,5.60
2024-01-28T08:31:16.389Z,6.10
2024-01-28T08:33:44.591Z,5.00
2024-01-28T08:36:12.866Z,5.60
2024-01-28T08:38:40.888Z,8.40
2024-01-28T08:41:08.896Z,6.20
2024-01-28T08:43:37.078Z,7.10
2024-01-28T08:46:05.213Z,8.70
2024-01-28T08:48:33.607Z,7.20
2024-01-28T08:51:01.736Z,8.00
2024-01-28T08:53:30.606Z,4.40
2024-01-28T08:55:58.890Z,7.50
2024-01-28T08:58:27.539Z,7.30
2024-01-28T09:00:55.917Z,5.70
2024-01-28T09:03:24.024Z,5.60
2024-01-28T09:05:52.220Z,6.80
2024-01-28T09:08:20.184Z,5.70
2024-01-28T09:10:48.084Z,6.80
2024-01-28T09:13:16.225Z,5.70
2024-01-28T09:15:44.197Z,6.50
2024-01-28T09:18:12.680Z,5.40
2024-01-28T09:20:40.884Z,5.90
2024-01-28T09:23:09.226Z,6.40
2024-01-28T09:25:37.642Z,8.40
2024-01-28T09:28:08.653Z,7.00
2024-01-28T09:30:36.874Z,5.60
2024-01-28T09:33:06.925Z,7.40
2024-01-28T09:35:35.213Z,6.90
2024-01-28T09:38:03.837Z,4.80
2024-01-28T09:40:32.045Z,6.40
2024-01-28T09:43:13.414Z,5.60
2024-01-28T09:45:42.121Z,5.80
2024-01-28T09:48:12.165Z,6.10
2024-01-28T09:50:40.879Z,4.80
2024-01-28T09:53:11.603Z,6.80
2024-01-28T09:55:40.611Z,6.70
2024-01-28T09:58:09.501Z,6.00
2024-01-28T10:00:42.803Z,6.20
2024-01-28T10:03:12.217Z,4.80
2024-01-28T10:05:40.559Z,3.60
2024-01-28T10:08:09.357Z,6.40
2024-01-28T10:10:37.996Z,6.30
2024-01-28T10:13:07.980Z,5.30
2024-01-28T10:15:36.430Z,6.20
2024-01-28T10:18:07.607Z,5.90
2024-01-28T10:20:36.393Z,6.40
2024-01-28T10:23:05.282Z,7.30
2024-01-28T10:25:36.156Z,5.70
2024-01-28T10:28:05.760Z,5.10
2024-01-28T10:30:35.892Z,5.20
2024-01-28T10:33:04.824Z,5.90
2024-01-28T10:35:37.153Z,9.30
2024-01-28T10:38:08.015Z,6.90
2024-01-28T10:43:12.550Z,6.90
2024-01-28T10:45:43.516Z,6.50
2024-01-28T10:48:19.841Z,6.60
2024-01-28T10:50:48.646Z,8.60
2024-01-28T10:53:17.517Z,7.40
2024-01-28T10:55:46.488Z,8.60
2024-01-28T10:58:17.365Z,7.60
2024-01-28T11:00:49.166Z,5.80
2024-01-28T11:03:19.667Z,7.00
2024-01-28T11:05:49.035Z,7.00
2024-01-28T11:10:48.240Z,7.10
2024-01-28T11:13:16.537Z,8.50
2024-01-28T11:15:46.502Z,9.90
2024-01-28T11:18:20.948Z,9.40
2024-01-28T11:20:50.258Z,8.10
2024-01-28T11:23:21.342Z,7.00
2024-01-28T11:25:53.348Z,6.50
2024-01-28T11:28:24.332Z,8.90
2024-01-28T11:30:59.973Z,8.20
2024-01-28T11:33:37.321Z,21.20
2024-01-28T11:36:08.130Z,10.90
2024-01-28T11:38:41.910Z,9.10
2024-01-28T11:41:12.480Z,8.70
2024-01-28T11:43:40.881Z,11.30
2024-01-28T11:46:13.112Z,8.90
2024-01-28T11:48:45.012Z,9.80
2024-01-28T11:51:16.405Z,8.50
2024-01-28T11:53:47.766Z,9.10
2024-01-28T11:56:19.196Z,16.30
2024-01-28T11:58:48.333Z,11.90
2024-01-28T12:01:24.908Z,10.10
2024-01-28T12:03:56.722Z,8.60
2024-01-28T12:06:32.034Z,7.50
2024-01-28T12:09:01.767Z,8.20
2024-01-28T12:14:07.275Z,8.00
2024-01-28T12:16:36.277Z,8.00
2024-01-28T12:19:07.401Z,11.10
2024-01-28T12:21:36.088Z,7.50
2024-01-28T12:24:09.876Z,9.20
2024-01-28T12:26:43.129Z,9.50
2024-01-28T12:29:16.044Z,14.00
2024-01-28T12:31:44.880Z,12.00
2024-01-28T12:34:19.893Z,13.60
2024-01-28T12:36:49.502Z,15.30
2024-01-28T12:39:22.001Z,16.60
2024-01-28T12:41:52.262Z,23.80
2024-01-28T12:44:23.734Z,19.50
2024-01-28T12:46:52.220Z,18.30
2024-01-28T12:49:20.977Z,13.80
2024-01-28T12:51:52.438Z,14.50
2024-01-28T12:54:31.185Z,13.70
2024-01-28T12:57:00.735Z,13.40
2024-01-28T12:59:31.928Z,11.40
2024-01-28T13:02:00.288Z,12.10
2024-01-28T13:04:29.328Z,10.70
2024-01-28T13:07:03.838Z,9.30
2024-01-28T13:09:33.206Z,9.40
2024-01-28T13:12:05.070Z,7.10
2024-01-28T13:14:40.194Z,9.70
2024-01-28T13:17:12.776Z,9.50
2024-01-28T13:19:44.934Z,9.80
2024-01-28T13:22:16.770Z,11.30
2024-01-28T13:24:53.019Z,10.40
2024-01-28T13:27:24.166Z,9.40
2024-01-28T13:30:00.761Z,12.00
2024-01-28T13:32:32.631Z,13.70
2024-01-28T13:35:10.069Z,13.10
2024-01-28T13:37:41.710Z,14.50
2024-01-28T13:40:12.988Z,12.80
2024-01-28T13:42:44.781Z,14.10
2024-01-28T13:45:16.440Z,13.00
2024-01-28T13:47:47.411Z,14.90
2024-01-28T13:50:17.613Z,14.30
2024-01-28T13:52:57.253Z,16.50
2024-01-28T13:55:28.969Z,13.40
2024-01-28T13:57:57.570Z,14.80
2024-01-28T14:00:28.915Z,14.50
2024-01-28T14:03:00.802Z,17.70
2024-01-28T14:05:39.736Z,20.00
2024-01-28T14:08:10.711Z,19.20
2024-01-28T14:10:41.107Z,12.40
2024-01-28T14:13:15.539Z,19.20
2024-01-28T14:15:44.823Z,18.70
2024-01-28T14:18:23.769Z,18.90
2024-01-28T14:20:52.324Z,16.70
2024-01-28T14:23:25.848Z,19.90
2024-01-28T14:25:58.777Z,18.00
2024-01-28T14:28:27.555Z,17.10
2024-01-28T14:30:58.105Z,21.10
2024-01-28T14:33:30.843Z,19.60
2024-01-28T14:36:00.764Z,19.00
2024-01-28T14:38:35.954Z,15.70
2024-01-28T14:41:05.404Z,17.20
2024-01-28T14:43:37.134Z,15.90
2024-01-28T14:46:09.390Z,17.50
2024-01-28T14:48:42.785Z,21.50
2024-01-28T14:51:12.914Z,20.70
2024-01-28T14:53:45.189Z,19.60
2024-01-28T14:56:17.217Z,18.40
2024-01-28T14:58:49.763Z,17.70
2024-01-28T15:01:23.385Z,19.50
2024-01-28T15:03:56.979Z,17.50
2024-01-28T15:06:29.329Z,18.10
2024-01-28T15:09:02.458Z,14.60
2024-01-28T15:11:32.243Z,15.40
2024-01-28T15:14:01.563Z,16.90
2024-01-28T15:16:33.805Z,16.50
2024-01-28T15:19:04.895Z,17.70
2024-01-28T15:21:35.483Z,17.10
2024-01-28T15:24:04.647Z,13.70
2024-01-28T15:26:44.253Z,13.00
2024-01-28T15:29:16.640Z,15.70
2024-01-28T15:31:49.051Z,14.20
2024-01-28T15:34:20.949Z,12.00
2024-01-28T15:36:52.105Z,15.00
2024-01-28T15:39:20.766Z,14.70
2024-01-28T15:41:52.679Z,14.10
2024-01-28T15:44:24.759Z,12.90
2024-01-28T15:46:59.338Z,13.60
2024-01-28T15:49:32.585Z,14.30
2024-01-28T15:52:09.557Z,18.20
2024-01-28T15:54:43.746Z,20.40
2024-01-28T15:57:14.211Z,13.90
2024-01-28T15:59:54.957Z,13.80
2024-01-28T16:02:37.590Z,15.90
2024-01-28T16:05:09.449Z,11.60
2024-01-28T16:07:40.436Z,13.90
2024-01-28T16:10:18.471Z,14.40
2024-01-28T16:12:56.561Z,12.80
2024-01-28T16:15:32.337Z,17.60
2024-01-28T16:18:06.959Z,18.60
2024-01-28T16:20:38.211Z,25.30
2024-01-28T16:23:13.448Z,17.40
2024-01-28T16:25:47.541Z,16.40
2024-01-28T16:28:18.460Z,20.70
2024-01-28T16:30:52.452Z,17.40
2024-01-28T16:33:28.885Z,17.40
2024-01-28T16:36:09.887Z,18.00
2024-01-28T16:38:40.862Z,18.00
2024-01-28T16:41:13.435Z,21.90
2024-01-28T16:43:47.400Z,24.30
2024-01-28T16:46:23.752Z,27.40
2024-01-28T16:51:55.856Z,27.00
2024-01-28T16:54:26.344Z,30.40
2024-01-28T16:57:18.021Z,32.30
2024-01-28T16:59:48.975Z,26.40
2024-01-28T17:02:26.441Z,31.00
2024-01-28T17:05:04.764Z,30.50
2024-01-28T17:07:39.935Z,37.20
2024-01-28T17:10:11.369Z,40.20
2024-01-28T17:12:43.974Z,41.40
2024-01-28T17:15:20.208Z,34.00
2024-01-28T17:17:56.021Z,36.20
2024-01-28T17:20:30.087Z,36.50
2024-01-28T17:23:03.720Z,34.10
2024-01-28T17:25:38.198Z,32.70
2024-01-28T17:28:13.074Z,33.90
2024-01-28T17:30:45.381Z,33.50
2024-01-28T17:33:16.996Z,36.60
2024-01-28T17:35:53.384Z,39.30
2024-01-28T17:38:27.727Z,35.50
2024-01-28T17:41:04.844Z,36.20
2024-01-28T17:43:37.364Z,40.90
2024-01-28T17:46:11.281Z,41.60
2024-01-28T17:48:47.573Z,34.60
2024-01-28T17:51:17.704Z,36.10
2024-01-28T17:53:47.746Z,33.50
2024-01-28T17:56:18.064Z,47.10
2024-01-28T17:58:48.224Z,49.40
2024-01-28T18:01:23.725Z,38.80
2024-01-28T18:03:52.634Z,35.80
2024-01-28T18:06:28.115Z,39.20
2024-01-28T18:09:04.234Z,31.50
2024-01-28T18:11:36.516Z,35.70
2024-01-28T18:14:21.478Z,35.60
2024-01-28T18:16:52.830Z,33.00
2024-01-28T18:19:24.499Z,34.00
2024-01-28T18:22:01.419Z,32.00
2024-01-28T18:24:37.249Z,32.40
2024-01-28T18:27:13.661Z,40.10
2024-01-28T18:29:45.855Z,40.00
2024-01-28T18:32:20.426Z,42.70
2024-01-28T18:34:50.712Z,36.80
2024-01-28T18:37:23.634Z,36.00
2024-01-28T18:40:06.147Z,42.70
2024-01-28T18:42:38.659Z,39.30
2024-01-28T18:45:22.135Z,39.60
2024-01-28T18:47:55.287Z,39.80
2024-01-28T18:50:44.759Z,47.50
2024-01-28T18:53:20.369Z,53.10
2024-01-28T18:55:55.161Z,53.90
2024-01-28T18:58:34.010Z,52.70
2024-01-28T19:01:05.504Z,49.70
2024-01-28T19:03:52.407Z,52.00
2024-01-28T19:06:53.268Z,49.20
2024-01-28T19:09:32.338Z,47.20
2024-01-28T19:12:09.835Z,56.10
2024-01-28T19:14:45.924Z,52.80
2024-01-28T19:17:23.581Z,48.10
2024-01-28T19:20:10.778Z,41.90
2024-01-28T19:22:41.377Z,35.70
2024-01-28T19:25:24.637Z,33.60
2024-01-28T19:28:00.280Z,32.40
2024-01-28T19:30:39.704Z,34.60
2024-01-28T19:33:17.778Z,32.90
2024-01-28T19:35:58.575Z,34.10
2024-01-28T19:38:37.365Z,31.20
2024-01-28T19:44:20.471Z,34.10
2024-01-28T19:47:08.163Z,28.60
2024-01-28T19:50:05.242Z,30.30
2024-01-28T19:52:43.403Z,26.50
2024-01-28T19:55:19.293Z,29.30
2024-01-28T19:57:50.417Z,26.10
2024-01-28T20:00:37.269Z,26.90
2024-01-28T20:03:15.528Z,26.70
2024-01-28T20:05:53.361Z,29.20
2024-01-28T20:08:33.008Z,25.40
2024-01-28T20:11:06.385Z,29.20
2024-01-28T20:13:45.868Z,28.60
2024-01-28T20:16:16.875Z,23.70
2024-01-28T20:18:48.521Z,25.60
2024-01-28T20:21:28.510Z,23.60
2024-01-28T20:24:12.481Z,21.90
2024-01-28T20:26:46.270Z,22.60
2024-01-28T20:29:21.700Z,25.70
2024-01-28T20:31:56.802Z,22.10
2024-01-28T20:34:29.891Z,21.50
2024-01-28T20:37:17.965Z,25.30
2024-01-28T20:39:50.109Z,25.90
2024-01-28T20:42:20.893Z,26.70
2024-01-28T20:44:56.479Z,21.70
2024-01-28T20:47:26.508Z,22.60
2024-01-28T20:50:00.478Z,24.50
2024-01-28T20:52:29.795Z,24.20
2024-01-28T20:55:08.150Z,24.30
2024-01-28T20:57:40.355Z,20.30
2024-01-28T21:00:17.920Z,23.30
2024-01-28T21:02:56.375Z,21.70
2024-01-28T21:05:35.672Z,23.40
2024-01-28T21:08:06.965Z,20.30
2024-01-28T21:10:45.310Z,20.80
2024-01-28T21:13:28.001Z,16.80
2024-01-28T21:16:14.643Z,17.80
2024-01-28T21:18:45.437Z,15.50
2024-01-28T21:21:16.469Z,17.00
2024-01-28T21:23:52.074Z,15.10
2024-01-28T21:26:25.024Z,15.00
2024-01-28T21:29:08.280Z,16.40
2024-01-28T21:31:40.879Z,16.30
2024-01-28T21:34:20.509Z,16.80
2024-01-28T21:36:50.902Z,13.60
2024-01-28T21:39:20.377Z,13.70
2024-01-28T21:44:34.002Z,16.20
2024-01-28T21:47:06.566Z,16.30
2024-01-28T21:49:41.146Z,15.70
2024-01-28T21:52:13.622Z,14.40
2024-01-28T21:54:44.955Z,14.40
2024-01-28T21:57:19.963Z,14.80
2024-01-28T21:59:52.083Z,14.80
2024-01-28T22:02:23.438Z,13.50
2024-01-28T22:04:54.528Z,16.80
2024-01-28T22:07:23.864Z,15.20
2024-01-28T22:09:53.356Z,15.10
2024-01-28T22:12:24.609Z,16.80
2024-01-28T22:14:54.530Z,25.00
2024-01-28T22:17:23.711Z,24.90
2024-01-28T22:19:52.285Z,28.20
2024-01-28T22:22:23.113Z,28.90
2024-01-28T22:24:52.415Z,30.10
2024-01-28T22:27:21.827Z,28.30
2024-01-28T22:29:53.749Z,28.90
2024-01-28T22:32:25.052Z,24.00
2024-01-28T22:34:53.645Z,25.20
2024-01-28T22:37:23.549Z,27.00
2024-01-28T22:39:52.038Z,23.80
2024-01-28T22:42:20.274Z,21.50
2024-01-28T22:44:48.133Z,24.20
2024-01-28T22:47:16.109Z,18.90
2024-01-28T22:49:44.096Z,20.10
2024-01-28T22:52:12.339Z,17.40
2024-01-28T22:54:40.452Z,16.00
2024-01-28T22:57:08.529Z,15.50
2024-01-28T22:59:36.526Z,19.00
2024-01-28T23:02:04.658Z,16.60
2024-01-28T23:04:32.937Z,19.20
2024-01-28T23:07:01.292Z,18.40
2024-01-28T23:09:29.394Z,18.80
2024-01-28T23:11:57.453Z,15.80
2024-01-28T23:14:25.786Z,14.70
2024-01-28T23:17:08.882Z,13.70
2024-01-28T23:19:37.021Z,15.70
2024-01-28T23:22:05.114Z,13.40
2024-01-28T23:24:33.215Z,15.40
2024-01-28T23:27:01.419Z,13.70
2024-01-28T23:29:30.687Z,15.20
2024-01-28T23:34:27.257Z,16.40
2024-01-28T23:36:55.280Z,16.70
2024-01-28T23:39:23.196Z,17.50
2024-01-28T23:41:51.098Z,16.70
2024-01-28T23:44:19.638Z,19.60
2024-01-28T23:46:47.554Z,17.40
2024-01-28T23:49:15.575Z,15.00
2024-01-28T23:51:47.532Z,14.50
2024-01-28T23:54:18.924Z,17.30
2024-01-28T23:56:46.838Z,15.10
2024-01-28T23:59:14.821Z,15.70
